createdAt,value
2017-08-09T00:02:05.051Z,62.60
2017-08-09T00:04:31.505Z,62.70
2017-08-09T00:06:58.811Z,63.00
2017-08-09T00:09:25.684Z,62.60
2017-08-09T00:11:52.270Z,62.60
2017-08-09T00:14:18.577Z,62.50
2017-08-09T00:16:45.798Z,62.80
2017-08-09T00:19:12.476Z,62.80
2017-08-09T00:21:39.201Z,62.70
2017-08-09T00:24:08.452Z,62.10
2017-08-09T00:26:35.006Z,62.10
2017-08-09T00:29:01.383Z,62.20
2017-08-09T00:31:28.441Z,63.00
2017-08-09T00:33:54.760Z,63.00
2017-08-09T00:36:21.065Z,63.00
2017-08-09T00:38:47.407Z,63.20
2017-08-09T00:41:14.499Z,63.60
2017-08-09T00:43:40.860Z,63.60
2017-08-09T00:46:07.202Z,63.50
2017-08-09T00:48:33.712Z,63.50
2017-08-09T00:51:00.058Z,63.50
2017-08-09T00:53:26.373Z,63.50
2017-08-09T00:55:52.739Z,63.40
2017-08-09T00:58:19.122Z,63.30
2017-08-09T01:00:46.261Z,62.90
2017-08-09T01:03:12.551Z,62.80
2017-08-09T01:05:39.657Z,62.60
2017-08-09T01:08:05.999Z,62.60
2017-08-09T01:10:32.337Z,62.50
2017-08-09T01:12:58.675Z,62.60
2017-08-09T01:15:25.007Z,62.70
2017-08-09T01:17:51.325Z,62.70
2017-08-09T01:20:17.706Z,62.40
2017-08-09T01:22:44.791Z,62.40
2017-08-09T01:25:11.368Z,62.20
2017-08-09T01:27:37.683Z,62.50
2017-08-09T01:30:03.993Z,62.70
2017-08-09T01:32:30.583Z,62.60
2017-08-09T01:34:57.674Z,62.90
2017-08-09T01:37:24.009Z,62.00
2017-08-09T01:39:50.400Z,61.60
2017-08-09T01:42:17.469Z,61.20
2017-08-09T01:44:43.827Z,61.20
2017-08-09T01:47:10.238Z,61.10
2017-08-09T01:49:36.558Z,61.10
2017-08-09T01:52:02.924Z,61.10
2017-08-09T01:54:29.247Z,61.20
2017-08-09T01:56:55.635Z,61.00
2017-08-09T01:59:22.744Z,61.10
2017-08-09T02:01:49.101Z,61.10
2017-08-09T02:04:16.310Z,61.30
2017-08-09T02:06:42.628Z,61.30
2017-08-09T02:09:08.997Z,61.50
2017-08-09T02:11:35.338Z,61.40
2017-08-09T02:14:01.661Z,61.40
2017-08-09T02:16:28.018Z,61.30
2017-08-09T02:18:55.086Z,61.20
2017-08-09T02:21:21.401Z,61.20
2017-08-09T02:23:48.464Z,60.90
2017-08-09T02:26:14.811Z,60.90
2017-08-09T02:28:41.162Z,61.90
2017-08-09T02:31:07.499Z,61.50
2017-08-09T02:33:33.843Z,61.70
2017-08-09T02:36:00.157Z,61.30
2017-08-09T02:38:26.462Z,61.00
2017-08-09T02:40:52.809Z,61.00
2017-08-09T02:43:19.183Z,61.40
2017-08-09T02:45:46.267Z,61.70
2017-08-09T02:48:12.612Z,61.70
2017-08-09T02:50:38.956Z,61.70
2017-08-09T02:53:05.286Z,61.50
2017-08-09T02:55:31.647Z,61.10
2017-08-09T02:57:57.951Z,60.80
2017-08-09T03:00:24.275Z,60.40
2017-08-09T03:02:50.580Z,60.40
2017-08-09T03:05:16.948Z,60.50
2017-08-09T03:07:43.239Z,60.40
2017-08-09T03:10:09.564Z,60.30
2017-08-09T03:12:35.873Z,60.00
2017-08-09T03:15:03.011Z,59.80
2017-08-09T03:17:29.361Z,59.70
2017-08-09T03:19:56.407Z,60.10
2017-08-09T03:22:23.535Z,60.60
2017-08-09T03:24:49.909Z,60.60
2017-08-09T03:27:16.573Z,60.40
2017-08-09T03:29:42.936Z,59.50
2017-08-09T03:32:09.443Z,59.20
2017-08-09T03:34:35.837Z,59.20
2017-08-09T03:37:02.219Z,59.30
2017-08-09T03:39:28.808Z,59.60
2017-08-09T03:41:55.447Z,59.40
2017-08-09T03:44:22.691Z,59.60
2017-08-09T03:46:48.999Z,59.80
2017-08-09T03:49:16.079Z,61.00
2017-08-09T03:51:42.371Z,60.50
2017-08-09T03:54:08.699Z,60.60
2017-08-09T03:56:34.998Z,60.80
2017-08-09T03:59:01.321Z,60.90
2017-08-09T04:01:27.872Z,60.90
2017-08-09T04:03:54.204Z,61.10
2017-08-09T04:06:20.533Z,61.10
2017-08-09T04:08:46.870Z,61.60
2017-08-09T04:11:13.940Z,60.60
2017-08-09T04:13:40.256Z,60.50
2017-08-09T04:16:06.578Z,60.40
2017-08-09T04:18:32.916Z,60.40
2017-08-09T04:20:59.249Z,60.60
2017-08-09T04:23:25.592Z,60.70
2017-08-09T04:25:51.915Z,60.70
2017-08-09T04:28:18.250Z,61.20
2017-08-09T04:30:44.611Z,61.30
2017-08-09T04:33:10.927Z,61.50
2017-08-09T04:35:37.989Z,61.10
2017-08-09T04:38:04.297Z,61.10
2017-08-09T04:40:32.454Z,62.30
2017-08-09T04:42:59.904Z,61.60
2017-08-09T04:45:26.391Z,61.60
2017-08-09T04:47:52.935Z,61.90
2017-08-09T04:50:19.366Z,62.30
2017-08-09T04:52:45.807Z,63.30
2017-08-09T04:55:12.154Z,62.90
2017-08-09T04:57:38.504Z,63.10
2017-08-09T05:00:04.855Z,63.10
2017-08-09T05:02:31.533Z,62.80
2017-08-09T05:04:58.147Z,62.60
2017-08-09T05:07:25.309Z,62.80
2017-08-09T05:09:51.622Z,62.80
2017-08-09T05:12:18.694Z,63.10
2017-08-09T05:14:45.048Z,63.10
2017-08-09T05:17:12.714Z,63.10
2017-08-09T05:19:39.130Z,63.30
2017-08-09T05:22:05.496Z,63.80
2017-08-09T05:24:31.872Z,64.20
2017-08-09T05:26:58.403Z,64.30
2017-08-09T05:29:25.591Z,64.70
2017-08-09T05:31:52.063Z,64.60
2017-08-09T05:34:18.419Z,64.70
2017-08-09T05:36:45.461Z,65.20
2017-08-09T05:39:12.504Z,65.10
2017-08-09T05:41:39.908Z,65.00
2017-08-09T05:44:06.232Z,65.00
2017-08-09T05:46:32.634Z,65.00
2017-08-09T05:48:59.739Z,65.10
2017-08-09T05:51:26.083Z,65.10
2017-08-09T05:53:52.423Z,65.00
2017-08-09T05:56:18.740Z,64.80
2017-08-09T05:58:45.100Z,64.60
2017-08-09T06:01:12.480Z,64.90
2017-08-09T06:03:38.810Z,64.90
2017-08-09T06:06:05.379Z,64.70
2017-08-09T06:08:31.994Z,64.40
2017-08-09T06:10:58.359Z,64.50
2017-08-09T06:13:25.256Z,64.40
2017-08-09T06:15:51.876Z,64.60
2017-08-09T06:18:19.415Z,64.90
2017-08-09T06:20:45.848Z,64.90
2017-08-09T06:23:14.562Z,64.60
2017-08-09T06:25:41.353Z,64.50
2017-08-09T06:28:08.385Z,64.60
2017-08-09T06:30:34.688Z,64.60
2017-08-09T06:33:00.989Z,64.20
2017-08-09T06:35:29.344Z,63.40
2017-08-09T06:37:56.333Z,63.40
2017-08-09T06:40:23.586Z,62.50
2017-08-09T06:42:50.223Z,62.50
2017-08-09T06:45:17.343Z,62.80
2017-08-09T06:47:43.727Z,62.80
2017-08-09T06:50:10.086Z,62.50
2017-08-09T06:52:36.388Z,62.20
2017-08-09T06:55:02.695Z,62.90
2017-08-09T06:57:29.823Z,62.60
2017-08-09T06:59:56.128Z,62.40
2017-08-09T07:02:22.418Z,61.90
2017-08-09T07:04:48.840Z,61.80
2017-08-09T07:07:15.973Z,61.50
2017-08-09T07:09:43.012Z,59.40
2017-08-09T07:12:09.378Z,59.10
2017-08-09T07:14:35.690Z,59.20
2017-08-09T07:17:02.739Z,57.40
2017-08-09T07:19:29.847Z,57.00
2017-08-09T07:21:56.168Z,57.10
2017-08-09T07:24:22.805Z,57.10
2017-08-09T07:26:49.215Z,56.40
2017-08-09T07:29:15.572Z,56.60
2017-08-09T07:31:41.929Z,56.80
2017-08-09T07:34:08.283Z,57.00
2017-08-09T07:36:35.356Z,56.30
2017-08-09T07:39:01.701Z,56.30
2017-08-09T07:41:28.012Z,56.80
2017-08-09T07:43:54.377Z,57.00
2017-08-09T07:46:20.717Z,56.30
2017-08-09T07:48:47.030Z,56.40
2017-08-09T07:51:13.400Z,56.90
2017-08-09T07:53:39.709Z,56.40
2017-08-09T07:56:06.066Z,56.30
2017-08-09T07:58:33.187Z,56.80
2017-08-09T08:00:59.520Z,56.10
2017-08-09T08:03:25.940Z,56.10
2017-08-09T08:05:52.323Z,55.00
2017-08-09T08:08:18.753Z,56.30
2017-08-09T08:10:45.872Z,55.30
2017-08-09T08:13:12.195Z,55.30
2017-08-09T08:15:38.535Z,56.00
2017-08-09T08:18:04.837Z,55.20
2017-08-09T08:20:31.188Z,55.70
2017-08-09T08:22:57.492Z,56.30
2017-08-09T08:25:23.803Z,56.30
2017-08-09T08:27:50.111Z,55.30
2017-08-09T08:30:17.196Z,55.00
2017-08-09T08:32:43.494Z,55.00
2017-08-09T08:35:10.585Z,54.90
2017-08-09T08:37:36.906Z,54.80
2017-08-09T08:40:03.733Z,54.80
2017-08-09T08:42:30.045Z,54.90
2017-08-09T08:44:57.144Z,54.30
2017-08-09T08:47:23.460Z,54.30
2017-08-09T08:49:49.755Z,53.90
2017-08-09T08:52:16.866Z,53.70
2017-08-09T08:54:43.159Z,53.70
2017-08-09T08:57:09.495Z,54.10
2017-08-09T08:59:35.824Z,54.20
2017-08-09T09:02:02.180Z,54.20
2017-08-09T09:04:28.484Z,54.40
2017-08-09T09:06:54.844Z,53.80
2017-08-09T09:09:21.407Z,53.50
2017-08-09T09:11:47.765Z,54.20
2017-08-09T09:14:14.118Z,54.90
2017-08-09T09:16:40.448Z,54.30
2017-08-09T09:19:06.738Z,54.70
2017-08-09T09:21:33.092Z,55.00
2017-08-09T09:23:59.391Z,54.70
2017-08-09T09:26:25.710Z,53.90
2017-08-09T09:28:52.049Z,53.70
2017-08-09T09:31:18.350Z,53.70
2017-08-09T09:33:44.707Z,53.30
2017-08-09T09:36:11.110Z,53.30
2017-08-09T09:38:37.415Z,52.90
2017-08-09T09:41:03.751Z,53.00
2017-08-09T09:43:30.433Z,53.20
2017-08-09T09:45:57.028Z,52.90
2017-08-09T09:48:23.410Z,53.20
2017-08-09T09:50:49.917Z,53.30
2017-08-09T09:53:16.337Z,52.80
2017-08-09T09:55:42.743Z,53.00
2017-08-09T09:58:09.195Z,52.60
2017-08-09T10:00:35.715Z,53.60
2017-08-09T10:03:02.177Z,52.90
2017-08-09T10:05:28.500Z,52.60
2017-08-09T10:07:54.852Z,52.60
2017-08-09T10:10:21.230Z,52.00
2017-08-09T10:12:48.279Z,52.90
2017-08-09T10:15:15.366Z,52.90
2017-08-09T10:17:41.705Z,52.90
2017-08-09T10:20:08.122Z,53.10
2017-08-09T10:22:34.419Z,53.20
2017-08-09T10:25:01.458Z,53.00
2017-08-09T10:27:28.545Z,52.60
2017-08-09T10:29:54.903Z,52.50
2017-08-09T10:32:21.267Z,52.10
2017-08-09T10:34:47.624Z,52.10
2017-08-09T10:37:13.957Z,52.20
2017-08-09T10:39:40.342Z,52.40
2017-08-09T10:42:06.647Z,52.50
2017-08-09T10:44:32.955Z,52.70
2017-08-09T10:46:59.323Z,52.50
2017-08-09T10:49:25.704Z,52.70
2017-08-09T10:51:52.018Z,52.10
2017-08-09T10:54:18.355Z,52.50
2017-08-09T10:56:44.697Z,52.60
2017-08-09T10:59:11.007Z,52.50
2017-08-09T11:01:37.343Z,52.40
2017-08-09T11:04:04.429Z,52.20
2017-08-09T11:06:30.794Z,52.10
2017-08-09T11:08:57.095Z,51.60
2017-08-09T11:11:23.393Z,51.50
2017-08-09T11:13:49.744Z,50.80
2017-08-09T11:16:16.047Z,51.00
2017-08-09T11:18:43.163Z,51.20
2017-08-09T11:21:09.660Z,51.20
2017-08-09T11:23:36.226Z,51.70
2017-08-09T11:26:02.628Z,51.50
2017-08-09T11:28:28.927Z,50.60
2017-08-09T11:30:56.002Z,51.50
2017-08-09T11:33:22.361Z,51.40
2017-08-09T11:35:48.695Z,51.90
2017-08-09T11:38:15.012Z,51.70
2017-08-09T11:40:41.362Z,51.30
2017-08-09T11:43:07.760Z,50.80
2017-08-09T11:45:41.115Z,50.70
2017-08-09T11:48:07.499Z,50.20
2017-08-09T11:50:33.811Z,50.00
2017-08-09T11:53:00.116Z,50.50
2017-08-09T11:55:27.214Z,50.70
2017-08-09T11:57:53.576Z,50.70
2017-08-09T12:00:19.937Z,50.80
2017-08-09T12:02:47.041Z,51.00
2017-08-09T12:05:13.346Z,51.50
2017-08-09T12:07:39.689Z,50.50
2017-08-09T12:10:06.039Z,50.00
2017-08-09T12:12:32.361Z,49.60
2017-08-09T12:14:58.712Z,49.20
2017-08-09T12:17:25.076Z,49.40
2017-08-09T12:19:52.789Z,49.00
2017-08-09T12:22:19.459Z,48.90
2017-08-09T12:24:46.559Z,49.30
2017-08-09T12:27:12.964Z,48.80
2017-08-09T12:29:39.613Z,48.90
2017-08-09T12:32:06.278Z,49.00
2017-08-09T12:34:32.941Z,49.50
2017-08-09T12:36:59.528Z,48.80
2017-08-09T12:39:25.850Z,49.70
2017-08-09T12:41:52.250Z,48.90
2017-08-09T12:44:18.594Z,49.60
2017-08-09T12:46:45.666Z,49.90
2017-08-09T12:49:12.067Z,49.80
2017-08-09T12:51:39.298Z,49.80
2017-08-09T12:54:05.626Z,49.20
2017-08-09T12:56:31.960Z,48.70
2017-08-09T12:58:58.265Z,48.60
2017-08-09T13:01:24.675Z,48.40
2017-08-09T13:03:51.013Z,48.60
2017-08-09T13:06:17.375Z,48.50
2017-08-09T13:08:43.740Z,48.60
2017-08-09T13:11:10.826Z,48.90
2017-08-09T13:13:37.144Z,48.90
2017-08-09T13:16:03.547Z,49.70
2017-08-09T13:18:29.883Z,48.90
2017-08-09T13:20:56.983Z,48.70
2017-08-09T13:23:23.355Z,48.60
2017-08-09T13:25:49.675Z,48.50
2017-08-09T13:28:15.998Z,48.50
2017-08-09T13:30:42.349Z,47.30
2017-08-09T13:33:08.686Z,47.60
2017-08-09T13:35:35.739Z,47.00
2017-08-09T13:38:02.882Z,47.80
2017-08-09T13:40:30.085Z,48.30
2017-08-09T13:42:56.429Z,48.60
2017-08-09T13:45:22.787Z,48.50
2017-08-09T13:47:49.119Z,48.20
2017-08-09T13:50:15.430Z,48.40
2017-08-09T13:52:41.784Z,48.70
2017-08-09T13:55:08.108Z,48.30
2017-08-09T13:57:34.659Z,47.40
2017-08-09T14:00:01.786Z,47.20
2017-08-09T14:02:28.095Z,47.20
2017-08-09T14:04:54.458Z,47.20
2017-08-09T14:07:20.792Z,47.00
2017-08-09T14:09:47.151Z,47.30
2017-08-09T14:12:13.502Z,47.40
2017-08-09T14:14:39.816Z,47.40
2017-08-09T14:17:06.176Z,46.80
2017-08-09T14:19:32.530Z,47.00
2017-08-09T14:21:58.927Z,46.60
2017-08-09T14:24:25.271Z,47.20
2017-08-09T14:26:51.576Z,47.60
2017-08-09T14:29:17.899Z,47.80
2017-08-09T14:31:44.201Z,47.70
2017-08-09T14:34:10.571Z,47.10
2017-08-09T14:36:36.889Z,47.20
2017-08-09T14:39:03.266Z,47.60
2017-08-09T14:41:29.597Z,48.10
2017-08-09T14:43:55.939Z,47.90
2017-08-09T14:46:22.267Z,47.80
2017-08-09T14:48:48.624Z,47.60
2017-08-09T14:51:15.676Z,46.80
2017-08-09T14:53:42.849Z,46.90
2017-08-09T14:56:09.182Z,46.80
2017-08-09T14:58:35.502Z,47.20
2017-08-09T15:01:01.883Z,47.30
2017-08-09T15:03:28.194Z,47.50
2017-08-09T15:05:54.663Z,47.20
2017-08-09T15:08:21.790Z,47.80
2017-08-09T15:10:48.123Z,47.80
2017-08-09T15:13:14.476Z,48.00
2017-08-09T15:15:40.819Z,47.80
2017-08-09T15:18:07.930Z,48.10
2017-08-09T15:20:34.292Z,47.70
2017-08-09T15:23:00.611Z,47.90
2017-08-09T15:25:26.930Z,47.50
2017-08-09T15:27:53.280Z,46.90
2017-08-09T15:30:19.597Z,47.00
2017-08-09T15:32:45.951Z,47.30
2017-08-09T15:35:12.314Z,47.40
2017-08-09T15:37:38.679Z,47.40
2017-08-09T15:40:06.160Z,47.00
2017-08-09T15:42:32.592Z,47.60
2017-08-09T15:44:59.294Z,47.60
2017-08-09T15:47:25.957Z,47.70
2017-08-09T15:49:52.266Z,47.80
2017-08-09T15:52:18.631Z,47.70
2017-08-09T15:54:44.973Z,47.90
2017-08-09T15:57:11.328Z,47.70
2017-08-09T15:59:37.643Z,47.60
2017-08-09T16:02:04.779Z,48.20
2017-08-09T16:04:38.175Z,47.60
2017-08-09T16:07:05.043Z,48.00
2017-08-09T16:09:32.407Z,48.10
2017-08-09T16:11:58.981Z,48.00
2017-08-09T16:14:25.358Z,48.10
2017-08-09T16:16:51.660Z,48.70
2017-08-09T16:19:17.964Z,48.60
2017-08-09T16:21:44.477Z,48.50
2017-08-09T16:24:11.259Z,49.00
2017-08-09T16:26:37.651Z,48.70
2017-08-09T16:29:04.031Z,48.80
2017-08-09T16:31:30.541Z,48.60
2017-08-09T16:33:56.867Z,48.40
2017-08-09T16:36:23.362Z,48.40
2017-08-09T16:38:49.669Z,48.50
2017-08-09T16:41:16.181Z,48.90
2017-08-09T16:43:44.180Z,49.30
2017-08-09T16:46:10.559Z,49.20
2017-08-09T16:48:36.992Z,49.20
2017-08-09T16:51:03.338Z,49.20
2017-08-09T16:53:29.673Z,49.70
2017-08-09T16:55:57.040Z,49.60
2017-08-09T16:58:23.611Z,49.90
2017-08-09T17:03:42.847Z,50.20
2017-08-09T17:06:09.254Z,50.60
2017-08-09T17:08:35.636Z,50.50
2017-08-09T17:11:01.983Z,50.70
2017-08-09T17:13:28.433Z,50.80
2017-08-09T17:15:54.898Z,50.90
2017-08-09T17:18:21.373Z,50.70
2017-08-09T17:20:48.438Z,51.50
2017-08-09T17:23:14.790Z,51.60
2017-08-09T17:25:41.100Z,52.00
2017-08-09T17:28:07.464Z,52.00
2017-08-09T17:30:33.768Z,51.90
2017-08-09T17:33:00.846Z,51.40
2017-08-09T17:35:27.254Z,51.10
2017-08-09T17:37:53.786Z,50.60
2017-08-09T17:40:20.279Z,50.20
2017-08-09T17:42:47.346Z,49.40
2017-08-09T17:45:14.456Z,49.30
2017-08-09T17:47:40.943Z,49.40
2017-08-09T17:50:07.284Z,49.60
2017-08-09T17:52:33.583Z,50.40
2017-08-09T17:55:00.743Z,51.80
2017-08-09T17:57:27.066Z,51.80
2017-08-09T17:59:54.352Z,51.20
2017-08-09T18:02:20.701Z,51.20
2017-08-09T18:04:47.008Z,51.30
2017-08-09T18:07:13.362Z,50.60
2017-08-09T18:09:39.664Z,50.50
2017-08-09T18:12:06.096Z,50.40
2017-08-09T18:14:32.627Z,50.30
2017-08-09T18:16:59.221Z,50.30
2017-08-09T18:19:25.937Z,50.30
2017-08-09T18:21:52.396Z,50.60
2017-08-09T18:24:18.926Z,50.60
2017-08-09T18:26:45.693Z,50.70
2017-08-09T18:29:12.989Z,50.60
2017-08-09T18:31:39.498Z,50.60
2017-08-09T18:34:06.032Z,50.70
2017-08-09T18:36:32.549Z,51.00
2017-08-09T18:38:59.708Z,51.10
2017-08-09T18:41:27.052Z,50.90
2017-08-09T18:43:54.171Z,51.90
2017-08-09T18:46:20.475Z,51.30
2017-08-09T18:48:46.828Z,51.80
2017-08-09T18:51:13.145Z,52.30
2017-08-09T18:53:39.451Z,53.10
2017-08-09T18:56:05.822Z,53.60
2017-08-09T18:58:32.132Z,53.80
2017-08-09T19:00:58.569Z,53.80
2017-08-09T19:03:24.916Z,54.30
2017-08-09T19:05:51.307Z,54.10
2017-08-09T19:08:17.782Z,54.60
2017-08-09T19:10:44.634Z,54.60
2017-08-09T19:13:11.058Z,54.90
2017-08-09T19:15:37.405Z,55.00
2017-08-09T19:18:03.780Z,54.60
2017-08-09T19:20:30.207Z,55.00
2017-08-09T19:22:56.587Z,54.80
2017-08-09T19:25:22.993Z,55.40
2017-08-09T19:27:49.595Z,55.70
2017-08-09T19:30:16.881Z,56.20
2017-08-09T19:32:43.195Z,56.20
2017-08-09T19:35:09.565Z,55.80
2017-08-09T19:37:35.963Z,55.50
2017-08-09T19:40:02.273Z,55.90
2017-08-09T19:42:29.330Z,55.90
2017-08-09T19:44:56.485Z,55.30
2017-08-09T19:47:22.853Z,55.30
2017-08-09T19:49:49.198Z,55.60
2017-08-09T19:52:15.545Z,57.80
2017-08-09T19:54:41.867Z,59.50
2017-08-09T19:57:08.538Z,60.60
2017-08-09T19:59:35.643Z,61.40
2017-08-09T20:02:02.130Z,61.40
2017-08-09T20:04:28.483Z,60.90
2017-08-09T20:06:54.815Z,60.50
2017-08-09T20:09:22.151Z,60.30
2017-08-09T20:11:48.513Z,60.10
2017-08-09T20:14:14.861Z,61.70
2017-08-09T20:16:41.167Z,63.70
2017-08-09T20:19:07.569Z,65.20
2017-08-09T20:21:33.890Z,64.60
2017-08-09T20:24:00.960Z,67.10
2017-08-09T20:26:27.342Z,67.10
2017-08-09T20:28:53.722Z,67.20
2017-08-09T20:31:20.060Z,67.80
2017-08-09T20:33:46.372Z,67.70
2017-08-09T20:36:13.456Z,67.40
2017-08-09T20:38:39.796Z,67.50
2017-08-09T20:41:06.104Z,68.00
2017-08-09T20:43:32.555Z,68.00
2017-08-09T20:45:58.861Z,68.10
2017-08-09T20:48:25.168Z,68.20
2017-08-09T20:50:52.268Z,69.00
2017-08-09T20:53:18.600Z,69.00
2017-08-09T20:55:44.917Z,69.20
2017-08-09T20:58:11.283Z,69.40
2017-08-09T21:00:37.618Z,70.00
2017-08-09T21:03:04.046Z,70.30
2017-08-09T21:05:30.419Z,70.20
2017-08-09T21:07:56.735Z,70.30
2017-08-09T21:10:23.832Z,70.70
2017-08-09T21:12:50.131Z,70.70
2017-08-09T21:15:16.483Z,70.80
2017-08-09T21:17:42.826Z,71.20
2017-08-09T21:20:09.136Z,71.40
2017-08-09T21:22:35.528Z,71.40
2017-08-09T21:25:02.568Z,71.60
2017-08-09T21:27:28.931Z,71.60
2017-08-09T21:29:55.315Z,71.70
2017-08-09T21:32:21.788Z,71.60
2017-08-09T21:34:48.909Z,71.80
2017-08-09T21:37:15.231Z,71.80
2017-08-09T21:39:41.526Z,71.80
2017-08-09T21:42:07.888Z,71.90
2017-08-09T21:44:34.209Z,71.70
2017-08-09T21:47:00.510Z,72.00
2017-08-09T21:49:26.848Z,72.30
2017-08-09T21:51:53.202Z,72.30
2017-08-09T21:54:19.548Z,72.20
2017-08-09T21:56:45.848Z,72.20
2017-08-09T21:59:12.150Z,72.20
2017-08-09T22:01:38.539Z,72.50
2017-08-09T22:04:04.882Z,72.50
2017-08-09T22:06:34.178Z,72.10
2017-08-09T22:09:00.489Z,72.60
2017-08-09T22:11:27.075Z,72.60
2017-08-09T22:13:54.160Z,72.20
2017-08-09T22:16:20.464Z,72.10
2017-08-09T22:18:46.885Z,72.30
2017-08-09T22:21:13.931Z,73.00
2017-08-09T22:23:40.989Z,72.30
2017-08-09T22:26:07.376Z,72.50
2017-08-09T22:28:33.677Z,72.50
2017-08-09T22:31:00.045Z,72.60
2017-08-09T22:33:26.428Z,72.50
2017-08-09T22:35:52.812Z,72.20
2017-08-09T22:38:19.190Z,73.30
2017-08-09T22:40:45.568Z,73.00
2017-08-09T22:43:11.932Z,72.70
2017-08-09T22:45:38.238Z,72.90
2017-08-09T22:48:04.551Z,72.80
2017-08-09T22:50:30.894Z,72.90
2017-08-09T22:52:57.509Z,73.20
2017-08-09T22:55:23.892Z,73.60
2017-08-09T22:57:50.936Z,74.10
2017-08-09T23:00:17.285Z,74.10
2017-08-09T23:02:43.661Z,73.80
2017-08-09T23:05:09.989Z,73.80
2017-08-09T23:07:36.332Z,74.00
2017-08-09T23:10:02.642Z,74.20
2017-08-09T23:12:29.027Z,73.90
2017-08-09T23:14:56.076Z,73.90
2017-08-09T23:17:23.396Z,74.00
2017-08-09T23:19:49.838Z,74.00
2017-08-09T23:22:16.233Z,74.30
2017-08-09T23:24:42.561Z,74.20
2017-08-09T23:27:08.912Z,74.20
2017-08-09T23:29:35.216Z,74.80
2017-08-09T23:32:01.568Z,74.40
2017-08-09T23:34:27.884Z,74.60
2017-08-09T23:36:54.236Z,74.60
2017-08-09T23:39:20.561Z,74.60
2017-08-09T23:41:47.114Z,74.60
2017-08-09T23:44:13.469Z,74.20
2017-08-09T23:46:40.589Z,74.00
2017-08-09T23:49:06.932Z,73.90
2017-08-09T23:51:33.314Z,73.70
2017-08-09T23:53:59.632Z,73.10
2017-08-09T23:56:25.936Z,73.30
2017-08-09T23:58:53.024Z,74.10
